createdAt,value
2022-10-28T00:01:06.953Z,7.20
2022-10-28T00:03:37.025Z,7.65
2022-10-28T00:06:13.186Z,7.20
2022-10-28T00:08:40.683Z,8.10
2022-10-28T00:11:13.009Z,8.35
2022-10-28T00:13:40.509Z,8.32
2022-10-28T00:16:19.864Z,7.90
2022-10-28T00:18:47.353Z,7.60
2022-10-28T00:21:23.722Z,7.93
2022-10-28T00:23:50.754Z,8.55
2022-10-28T00:26:21.808Z,8.45
2022-10-28T00:29:07.541Z,8.10
2022-10-28T00:31:35.938Z,6.75
2022-10-28T00:34:04.748Z,8.60
2022-10-28T00:36:34.004Z,8.07
2022-10-28T00:39:02.020Z,7.57
2022-10-28T00:41:35.462Z,8.35
2022-10-28T00:44:41.042Z,8.45
2022-10-28T00:47:32.541Z,7.80
2022-10-28T00:50:37.073Z,8.13
2022-10-28T00:53:09.734Z,8.00
2022-10-28T00:55:37.285Z,8.07
2022-10-28T00:58:06.134Z,8.27
2022-10-28T01:00:33.538Z,7.57
2022-10-28T01:03:00.813Z,8.10
2022-10-28T01:05:30.716Z,8.77
2022-10-28T01:08:02.440Z,7.57
2022-10-28T01:10:44.305Z,7.40
2022-10-28T01:13:29.561Z,8.33
2022-10-28T01:16:10.711Z,7.80
2022-10-28T01:18:37.949Z,9.52
2022-10-28T01:21:23.569Z,7.43
2022-10-28T01:24:15.234Z,7.50
2022-10-28T01:26:42.416Z,8.23
2022-10-28T01:29:25.308Z,7.50
2022-10-28T01:32:06.018Z,8.75
2022-10-28T01:35:21.089Z,7.10
2022-10-28T01:37:56.825Z,7.50
2022-10-28T01:40:24.476Z,7.93
2022-10-28T01:43:24.409Z,8.00
2022-10-28T01:45:51.601Z,7.45
2022-10-28T01:48:32.228Z,8.75
2022-10-28T01:51:27.318Z,7.63
2022-10-28T01:53:57.106Z,7.53
2022-10-28T01:56:31.035Z,7.97
2022-10-28T01:59:00.875Z,7.70
2022-10-28T02:01:30.192Z,7.53
2022-10-28T02:03:57.853Z,8.05
2022-10-28T02:06:28.737Z,7.50
2022-10-28T02:09:21.924Z,7.88
2022-10-28T02:12:12.396Z,7.47
2022-10-28T02:17:51.064Z,8.50
2022-10-28T02:20:43.624Z,7.47
2022-10-28T02:23:51.409Z,7.65
2022-10-28T02:26:27.163Z,7.88
2022-10-28T02:29:22.930Z,8.50
2022-10-28T02:31:55.646Z,8.10
2022-10-28T02:34:29.708Z,7.70
2022-10-28T02:36:59.465Z,8.18
2022-10-28T02:39:34.918Z,7.88
2022-10-28T02:42:31.098Z,7.57
2022-10-28T02:45:16.495Z,7.25
2022-10-28T02:47:52.760Z,7.40
2022-10-28T02:50:25.819Z,5.78
2022-10-28T02:52:56.541Z,8.10
2022-10-28T02:55:27.349Z,7.72
2022-10-28T02:57:54.531Z,6.53
2022-10-28T03:00:24.530Z,7.37
2022-10-28T03:02:51.552Z,7.45
2022-10-28T03:05:18.644Z,7.75
2022-10-28T03:07:46.097Z,7.53
2022-10-28T03:10:13.275Z,8.35
2022-10-28T03:12:40.455Z,7.13
2022-10-28T03:15:07.769Z,7.10
2022-10-28T03:17:34.942Z,7.90
2022-10-28T03:20:02.008Z,8.02
2022-10-28T03:22:28.870Z,5.60
2022-10-28T03:24:56.124Z,7.87
2022-10-28T03:27:22.984Z,7.32
2022-10-28T03:29:49.808Z,7.30
2022-10-28T03:32:16.998Z,8.63
2022-10-28T03:34:43.869Z,7.47
2022-10-28T03:37:11.156Z,7.10
2022-10-28T03:39:37.957Z,7.30
2022-10-28T03:42:04.834Z,7.32
2022-10-28T03:44:31.886Z,7.45
2022-10-28T03:46:58.856Z,7.32
2022-10-28T03:49:26.093Z,6.80
2022-10-28T03:51:53.287Z,6.93
2022-10-28T03:54:20.465Z,7.32
2022-10-28T03:56:47.880Z,7.28
2022-10-28T03:59:17.739Z,7.88
2022-10-28T04:01:47.467Z,7.33
2022-10-28T04:04:14.744Z,7.25
2022-10-28T04:06:41.932Z,7.18
2022-10-28T04:09:09.288Z,7.20
2022-10-28T04:11:36.233Z,7.85
2022-10-28T04:14:03.005Z,7.10
2022-10-28T04:16:30.193Z,8.02
2022-10-28T04:18:57.364Z,8.13
2022-10-28T04:21:24.616Z,6.90
2022-10-28T04:23:51.971Z,7.68
2022-10-28T04:26:19.209Z,7.20
2022-10-28T04:28:45.965Z,7.95
2022-10-28T04:31:13.222Z,8.10
2022-10-28T04:33:40.865Z,7.13
2022-10-28T04:36:07.933Z,7.70
2022-10-28T04:38:35.179Z,6.50
2022-10-28T04:41:02.006Z,8.07
2022-10-28T04:43:29.231Z,7.18
2022-10-28T04:45:56.346Z,7.15
2022-10-28T04:48:23.620Z,7.50
2022-10-28T04:50:51.002Z,6.57
2022-10-28T04:53:18.192Z,7.20
2022-10-28T04:55:45.536Z,6.93
2022-10-28T04:58:12.893Z,7.20
2022-10-28T05:00:40.093Z,7.15
2022-10-28T05:03:07.244Z,7.40
2022-10-28T05:05:34.476Z,7.30
2022-10-28T05:08:01.864Z,7.13
2022-10-28T05:10:28.868Z,6.65
2022-10-28T05:12:55.674Z,7.07
2022-10-28T05:15:22.706Z,7.33
2022-10-28T05:17:49.897Z,6.85
2022-10-28T05:20:17.829Z,7.53
2022-10-28T05:22:53.714Z,7.38
2022-10-28T05:25:21.740Z,8.25
2022-10-28T05:27:48.938Z,6.83
2022-10-28T05:30:16.463Z,7.38
2022-10-28T05:32:43.653Z,6.70
2022-10-28T05:35:11.544Z,7.65
2022-10-28T05:37:38.868Z,7.22
2022-10-28T05:40:06.228Z,5.90
2022-10-28T05:42:33.488Z,7.00
2022-10-28T05:45:00.281Z,6.70
2022-10-28T05:47:27.031Z,6.90
2022-10-28T05:49:54.364Z,7.38
2022-10-28T05:52:21.628Z,6.00
2022-10-28T05:54:48.433Z,6.47
2022-10-28T05:57:15.414Z,7.57
2022-10-28T05:59:42.638Z,7.30
2022-10-28T06:02:18.561Z,6.68
2022-10-28T06:04:45.820Z,6.53
2022-10-28T06:07:13.012Z,6.63
2022-10-28T06:09:40.197Z,6.60
2022-10-28T06:12:06.847Z,7.07
2022-10-28T06:14:33.775Z,7.10
2022-10-28T06:17:00.840Z,6.67
2022-10-28T06:19:27.653Z,7.05
2022-10-28T06:21:54.845Z,7.05
2022-10-28T06:24:21.632Z,18.38
2022-10-28T06:26:48.811Z,7.43
2022-10-28T06:29:15.980Z,6.30
2022-10-28T06:31:43.077Z,6.88
2022-10-28T06:34:10.905Z,7.07
2022-10-28T06:36:38.646Z,6.45
2022-10-28T06:39:05.924Z,6.40
2022-10-28T06:41:32.946Z,7.07
2022-10-28T06:44:00.218Z,7.00
2022-10-28T06:46:27.670Z,6.93
2022-10-28T06:48:56.526Z,6.57
2022-10-28T06:51:23.917Z,7.38
2022-10-28T06:53:52.075Z,6.57
2022-10-28T06:56:19.403Z,6.70
2022-10-28T06:58:53.691Z,6.15
2022-10-28T07:01:21.481Z,6.70
2022-10-28T07:03:48.930Z,6.97
2022-10-28T07:06:16.563Z,6.67
2022-10-28T07:08:43.437Z,7.07
2022-10-28T07:11:10.608Z,6.28
2022-10-28T07:13:37.967Z,6.80
2022-10-28T07:16:05.221Z,6.63
2022-10-28T07:18:32.464Z,5.07
2022-10-28T07:21:02.558Z,6.40
2022-10-28T07:23:32.945Z,5.80
2022-10-28T07:26:00.233Z,6.15
2022-10-28T07:28:28.082Z,6.80
2022-10-28T07:30:55.008Z,6.63
2022-10-28T07:33:22.251Z,5.50
2022-10-28T07:35:49.492Z,6.30
2022-10-28T07:38:17.111Z,6.35
2022-10-28T07:40:44.372Z,6.30
2022-10-28T07:43:11.677Z,5.80
2022-10-28T07:45:38.546Z,5.85
2022-10-28T07:48:05.958Z,5.80
2022-10-28T07:50:33.118Z,5.57
2022-10-28T07:53:00.328Z,6.20
2022-10-28T07:55:27.747Z,5.70
2022-10-28T07:57:55.370Z,5.55
2022-10-28T08:00:22.995Z,5.95
2022-10-28T08:02:50.273Z,5.30
2022-10-28T08:05:17.503Z,6.57
2022-10-28T08:07:44.762Z,4.80
2022-10-28T08:10:11.978Z,5.40
2022-10-28T08:12:38.971Z,6.63
2022-10-28T08:15:06.278Z,5.28
2022-10-28T08:17:33.503Z,5.80
2022-10-28T08:20:00.705Z,5.67
2022-10-28T08:22:27.968Z,5.70
2022-10-28T08:24:55.269Z,5.55
2022-10-28T08:27:22.453Z,5.07
2022-10-28T08:29:49.704Z,5.82
2022-10-28T08:32:16.957Z,4.80
2022-10-28T08:34:43.949Z,5.22
2022-10-28T08:37:11.391Z,5.35
2022-10-28T08:39:38.818Z,4.53
2022-10-28T08:42:20.049Z,5.40
2022-10-28T08:45:16.043Z,5.53
2022-10-28T08:47:52.758Z,4.85
2022-10-28T08:50:23.154Z,5.13
2022-10-28T08:53:13.988Z,5.07
2022-10-28T08:55:46.121Z,5.00
2022-10-28T08:58:13.079Z,4.97
2022-10-28T09:00:40.796Z,5.35
2022-10-28T09:03:24.324Z,5.63
2022-10-28T09:06:00.946Z,5.15
2022-10-28T09:08:30.841Z,4.93
2022-10-28T09:11:36.660Z,5.70
2022-10-28T09:14:03.971Z,4.75
2022-10-28T09:17:07.592Z,4.45
2022-10-28T09:19:52.934Z,5.22
2022-10-28T09:22:21.195Z,5.10
2022-10-28T09:24:59.266Z,4.93
2022-10-28T09:27:28.889Z,5.53
2022-10-28T09:30:25.387Z,5.07
2022-10-28T09:32:55.291Z,4.90
2022-10-28T09:35:26.731Z,4.68
2022-10-28T09:38:26.419Z,5.10
2022-10-28T09:40:59.743Z,5.95
2022-10-28T09:43:32.419Z,5.65
2022-10-28T09:46:05.567Z,4.95
2022-10-28T09:48:39.320Z,5.47
2022-10-28T09:51:06.606Z,4.80
2022-10-28T09:53:42.103Z,5.00
2022-10-28T09:56:09.748Z,5.13
2022-10-28T09:58:39.204Z,5.43
2022-10-28T10:01:06.164Z,4.93
2022-10-28T10:03:33.639Z,4.83
2022-10-28T10:06:14.463Z,4.82
2022-10-28T10:08:42.035Z,5.03
2022-10-28T10:11:36.176Z,5.10
2022-10-28T10:14:12.276Z,4.50
2022-10-28T10:16:59.114Z,4.43
2022-10-28T10:19:26.046Z,5.20
2022-10-28T10:21:54.557Z,4.85
2022-10-28T10:24:31.779Z,4.55
2022-10-28T10:27:18.569Z,5.25
2022-10-28T10:29:48.307Z,4.53
2022-10-28T10:32:15.864Z,4.63
2022-10-28T10:35:15.255Z,4.72
2022-10-28T10:37:44.715Z,4.50
2022-10-28T10:40:31.329Z,4.45
2022-10-28T10:43:20.475Z,4.33
2022-10-28T10:46:04.918Z,4.28
2022-10-28T10:48:38.473Z,5.75
2022-10-28T10:51:22.216Z,4.82
2022-10-28T10:53:51.928Z,4.63
2022-10-28T10:56:29.971Z,5.10
2022-10-28T10:59:01.932Z,5.00
2022-10-28T11:01:35.169Z,4.97
2022-10-28T11:04:07.301Z,4.53
2022-10-28T11:06:38.828Z,4.25
2022-10-28T11:09:30.786Z,5.10
2022-10-28T11:11:58.062Z,4.85
2022-10-28T11:14:31.347Z,5.25
2022-10-28T11:17:01.045Z,4.65
2022-10-28T11:19:33.472Z,4.32
2022-10-28T11:22:47.310Z,4.20
2022-10-28T11:25:25.163Z,5.43
2022-10-28T11:28:01.674Z,4.95
2022-10-28T11:30:46.945Z,4.28
2022-10-28T11:33:35.067Z,5.45
2022-10-28T11:36:28.897Z,4.93
2022-10-28T11:39:04.928Z,5.18
2022-10-28T11:41:46.796Z,4.43
2022-10-28T11:44:30.845Z,5.43
2022-10-28T11:47:34.395Z,4.18
2022-10-28T11:50:26.037Z,3.83
2022-10-28T11:53:09.982Z,3.35
2022-10-28T11:55:46.850Z,4.65
2022-10-28T11:58:32.502Z,3.95
2022-10-28T12:01:31.627Z,3.95
2022-10-28T12:04:04.400Z,4.33
2022-10-28T12:07:02.365Z,4.30
2022-10-28T12:09:53.476Z,4.40
2022-10-28T12:12:48.657Z,4.30
2022-10-28T12:15:41.494Z,4.30
2022-10-28T12:18:08.782Z,4.40
2022-10-28T12:20:57.749Z,4.28
2022-10-28T12:23:26.162Z,4.43
2022-10-28T12:25:57.358Z,3.95
2022-10-28T12:28:58.085Z,4.57
2022-10-28T12:31:47.187Z,3.57
2022-10-28T12:34:18.514Z,4.30
2022-10-28T12:36:50.464Z,4.50
2022-10-28T12:39:33.347Z,4.55
2022-10-28T12:42:21.594Z,6.68
2022-10-28T12:44:52.895Z,4.73
2022-10-28T12:48:05.820Z,5.40
2022-10-28T12:50:40.115Z,4.20
2022-10-28T12:53:17.100Z,4.18
2022-10-28T12:56:01.174Z,4.47
2022-10-28T12:58:38.331Z,5.10
2022-10-28T13:01:13.937Z,4.68
2022-10-28T13:03:41.062Z,4.50
2022-10-28T13:06:13.802Z,3.88
2022-10-28T13:08:41.073Z,6.57
2022-10-28T13:11:32.398Z,4.30
2022-10-28T13:14:17.384Z,5.05
2022-10-28T13:17:03.212Z,3.72
2022-10-28T13:19:42.150Z,4.40
2022-10-28T13:22:32.962Z,5.10
2022-10-28T13:25:02.826Z,4.83
2022-10-28T13:27:30.353Z,4.57
2022-10-28T13:30:00.383Z,5.40
2022-10-28T13:32:39.179Z,5.28
2022-10-28T13:35:20.867Z,5.40
2022-10-28T13:37:51.006Z,4.80
2022-10-28T13:40:28.294Z,4.07
2022-10-28T13:42:55.923Z,4.57
2022-10-28T13:45:55.485Z,4.47
2022-10-28T13:48:43.389Z,4.00
2022-10-28T13:51:10.667Z,4.20
2022-10-28T13:53:46.884Z,4.00
2022-10-28T13:56:35.616Z,4.60
2022-10-28T13:59:22.198Z,3.85
2022-10-28T14:02:07.760Z,4.22
2022-10-28T14:04:43.914Z,4.40
2022-10-28T14:07:10.912Z,4.10
2022-10-28T14:09:41.143Z,4.07
2022-10-28T14:12:17.708Z,3.63
2022-10-28T14:15:01.114Z,4.20
2022-10-28T14:17:35.597Z,3.83
2022-10-28T14:20:07.244Z,4.15
2022-10-28T14:22:36.340Z,4.38
2022-10-28T14:25:23.743Z,4.22
2022-10-28T14:27:51.057Z,4.40
2022-10-28T14:30:20.835Z,4.50
2022-10-28T14:32:58.414Z,4.25
2022-10-28T14:35:39.655Z,4.15
2022-10-28T14:38:15.507Z,4.55
2022-10-28T14:40:52.141Z,3.78
2022-10-28T14:43:52.162Z,4.03
2022-10-28T14:46:43.794Z,4.22
2022-10-28T14:49:28.997Z,4.25
2022-10-28T14:51:58.153Z,3.65
2022-10-28T14:54:40.946Z,4.28
2022-10-28T14:57:08.475Z,3.83
2022-10-28T14:59:44.193Z,3.85
2022-10-28T15:02:16.210Z,4.00
2022-10-28T15:04:57.431Z,5.05
2022-10-28T15:07:24.536Z,4.70
2022-10-28T15:09:53.555Z,4.13
2022-10-28T15:12:22.839Z,3.58
2022-10-28T15:14:52.656Z,4.10
2022-10-28T15:17:36.814Z,3.83
2022-10-28T15:20:23.386Z,4.22
2022-10-28T15:22:50.965Z,3.83
2022-10-28T15:25:22.547Z,3.75
2022-10-28T15:27:53.676Z,4.05
2022-10-28T15:30:23.261Z,4.88
2022-10-28T15:32:54.387Z,4.82
2022-10-28T15:35:27.200Z,4.23
2022-10-28T15:37:55.323Z,4.45
2022-10-28T15:40:31.091Z,3.80
2022-10-28T15:43:00.849Z,4.22
2022-10-28T15:45:35.184Z,5.97
2022-10-28T15:48:13.466Z,4.53
2022-10-28T15:50:40.719Z,4.35
2022-10-28T15:53:08.437Z,4.40
2022-10-28T15:55:47.552Z,3.65
2022-10-28T15:58:38.718Z,3.10
2022-10-28T16:01:10.077Z,3.63
2022-10-28T16:03:40.016Z,3.80
2022-10-28T16:06:28.521Z,3.78
2022-10-28T16:09:17.304Z,3.47
2022-10-28T16:11:57.566Z,3.50
2022-10-28T16:14:35.879Z,3.53
2022-10-28T16:17:19.172Z,3.67
2022-10-28T16:20:15.470Z,3.60
2022-10-28T16:22:46.032Z,4.18
2022-10-28T16:25:14.992Z,4.22
2022-10-28T16:27:42.154Z,4.17
2022-10-28T16:30:09.754Z,4.05
2022-10-28T16:32:44.237Z,5.20
2022-10-28T16:35:22.066Z,4.57
2022-10-28T16:37:54.800Z,4.20
2022-10-28T16:40:50.885Z,4.43
2022-10-28T16:43:15.920Z,3.97
2022-10-28T16:45:42.955Z,4.18
2022-10-28T16:48:13.368Z,5.65
2022-10-28T16:50:42.166Z,4.38
2022-10-28T16:53:12.425Z,4.30
2022-10-28T16:55:39.938Z,4.13
2022-10-28T16:58:07.516Z,4.75
2022-10-28T17:00:35.052Z,4.95
2022-10-28T17:03:02.341Z,4.35
2022-10-28T17:05:29.254Z,3.87
2022-10-28T17:07:57.900Z,4.35
2022-10-28T17:10:25.622Z,4.22
2022-10-28T17:12:52.875Z,4.68
2022-10-28T17:15:20.139Z,5.07
2022-10-28T17:17:52.176Z,6.30
2022-10-28T17:20:20.134Z,4.50
2022-10-28T17:22:47.452Z,5.18
2022-10-28T17:25:14.579Z,4.10
2022-10-28T17:27:42.177Z,6.55
2022-10-28T17:30:09.531Z,9.67
2022-10-28T17:32:36.377Z,5.32
2022-10-28T17:35:03.767Z,5.00
2022-10-28T17:37:30.616Z,5.13
2022-10-28T17:39:57.614Z,4.90
2022-10-28T17:42:24.943Z,4.90
2022-10-28T17:44:51.781Z,4.55
2022-10-28T17:47:18.999Z,5.35
2022-10-28T17:49:45.883Z,5.55
2022-10-28T17:52:13.408Z,4.97
2022-10-28T17:54:40.634Z,5.67
2022-10-28T17:57:07.479Z,5.25
2022-10-28T17:59:34.714Z,4.90
2022-10-28T18:02:02.052Z,5.40
2022-10-28T18:04:30.367Z,4.60
2022-10-28T18:06:58.181Z,4.33
2022-10-28T18:09:27.608Z,5.90
2022-10-28T18:11:54.507Z,5.00
2022-10-28T18:14:21.499Z,4.75
2022-10-28T18:16:50.287Z,5.35
2022-10-28T18:19:17.909Z,4.50
2022-10-28T18:21:45.383Z,4.53
2022-10-28T18:24:12.776Z,5.18
2022-10-28T18:26:40.524Z,4.50
2022-10-28T18:29:10.056Z,4.25
2022-10-28T18:31:38.450Z,4.50
2022-10-28T18:34:05.453Z,4.55
2022-10-28T18:36:35.659Z,4.90
2022-10-28T18:39:06.947Z,4.25
2022-10-28T18:41:38.187Z,4.75
2022-10-28T18:44:05.929Z,4.53
2022-10-28T18:46:37.736Z,4.53
2022-10-28T18:49:05.522Z,5.60
2022-10-28T18:51:33.848Z,4.90
2022-10-28T18:54:01.368Z,5.15
2022-10-28T18:56:29.406Z,4.80
2022-10-28T18:58:57.828Z,5.07
2022-10-28T19:01:28.878Z,4.90
2022-10-28T19:03:57.755Z,4.70
2022-10-28T19:06:26.365Z,5.25
2022-10-28T19:08:55.290Z,6.83
2022-10-28T19:11:25.674Z,4.82
2022-10-28T19:13:52.902Z,4.63
2022-10-28T19:16:19.737Z,4.50
2022-10-28T19:18:47.078Z,6.43
2022-10-28T19:21:15.760Z,5.40
2022-10-28T19:23:43.426Z,5.95
2022-10-28T19:26:12.063Z,4.90
2022-10-28T19:28:49.639Z,7.28
2022-10-28T19:31:22.549Z,5.40
2022-10-28T19:33:49.885Z,5.73
2022-10-28T19:36:19.387Z,6.57
2022-10-28T19:38:48.275Z,7.30
2022-10-28T19:41:19.539Z,5.97
2022-10-28T19:43:46.773Z,6.35
2022-10-28T19:46:18.904Z,7.03
2022-10-28T19:48:51.008Z,7.95
2022-10-28T19:51:20.509Z,8.23
2022-10-28T19:53:49.080Z,7.13
2022-10-28T19:56:19.776Z,7.38
2022-10-28T19:58:49.538Z,6.73
2022-10-28T20:01:17.562Z,7.03
2022-10-28T20:03:49.047Z,6.13
2022-10-28T20:06:18.160Z,6.60
2022-10-28T20:08:46.599Z,6.25
2022-10-28T20:11:26.644Z,5.23
2022-10-28T20:13:56.225Z,6.68
2022-10-28T20:16:24.263Z,7.40
2022-10-28T20:18:51.527Z,6.72
2022-10-28T20:21:20.786Z,6.45
2022-10-28T20:26:39.497Z,5.38
2022-10-28T20:29:08.594Z,5.82
2022-10-28T20:31:36.146Z,6.55
2022-10-28T20:34:05.539Z,6.82
2022-10-28T20:36:34.033Z,6.03
2022-10-28T20:39:12.533Z,7.25
2022-10-28T20:41:40.421Z,8.48
2022-10-28T20:44:08.312Z,7.32
2022-10-28T20:46:35.856Z,5.72
2022-10-28T20:49:03.639Z,7.10
2022-10-28T20:51:32.548Z,6.68
2022-10-28T20:54:00.052Z,8.02
2022-10-28T20:56:29.376Z,7.43
2022-10-28T20:58:58.272Z,6.20
2022-10-28T21:01:27.825Z,6.30
2022-10-28T21:03:56.786Z,6.07
2022-10-28T21:06:24.578Z,5.95
2022-10-28T21:08:53.586Z,5.75
2022-10-28T21:11:22.757Z,5.88
2022-10-28T21:13:55.567Z,7.07
2022-10-28T21:16:23.153Z,6.25
2022-10-28T21:18:50.682Z,6.72
2022-10-28T21:21:19.207Z,5.78
2022-10-28T21:23:46.698Z,5.65
2022-10-28T21:26:13.842Z,6.10
2022-10-28T21:28:44.755Z,6.45
2022-10-28T21:31:14.108Z,6.40
2022-10-28T21:33:42.096Z,6.63
2022-10-28T21:36:20.097Z,6.35
2022-10-28T21:38:47.031Z,6.30
2022-10-28T21:41:19.024Z,6.03
2022-10-28T21:43:48.323Z,5.78
2022-10-28T21:46:15.867Z,5.55
2022-10-28T21:48:43.328Z,6.45
2022-10-28T21:51:14.369Z,6.10
2022-10-28T21:53:42.719Z,7.15
2022-10-28T21:56:20.302Z,7.50
2022-10-28T21:58:48.624Z,6.53
2022-10-28T22:01:21.728Z,6.85
2022-10-28T22:03:49.382Z,8.53
2022-10-28T22:06:16.610Z,13.38
2022-10-28T22:08:43.841Z,5.97
2022-10-28T22:11:14.512Z,5.00
2022-10-28T22:13:42.116Z,5.50
2022-10-28T22:16:12.815Z,6.63
2022-10-28T22:18:40.435Z,6.18
2022-10-28T22:21:13.177Z,5.82
2022-10-28T22:23:40.512Z,6.07
2022-10-28T22:26:10.420Z,5.30
2022-10-28T22:28:37.560Z,5.83
2022-10-28T22:31:07.625Z,5.07
2022-10-28T22:33:34.873Z,6.43
2022-10-28T22:36:06.998Z,6.15
2022-10-28T22:38:34.604Z,5.82
2022-10-28T22:41:15.566Z,6.17
2022-10-28T22:43:44.589Z,5.55
2022-10-28T22:46:12.383Z,6.05
2022-10-28T22:48:39.320Z,5.40
2022-10-28T22:51:06.481Z,6.72
2022-10-28T22:53:33.367Z,6.70
2022-10-28T22:56:00.645Z,4.65
2022-10-28T22:58:28.342Z,6.30
2022-10-28T23:01:18.188Z,4.68
2022-10-28T23:03:47.137Z,4.95
2022-10-28T23:06:15.950Z,5.77
2022-10-28T23:08:44.914Z,5.25
2022-10-28T23:11:12.524Z,4.60
2022-10-28T23:13:39.928Z,5.85
2022-10-28T23:16:12.325Z,5.70
2022-10-28T23:18:39.791Z,5.00
2022-10-28T23:21:12.291Z,5.93
2022-10-28T23:23:39.924Z,4.28
2022-10-28T23:26:07.500Z,4.97
2022-10-28T23:28:34.722Z,3.53
2022-10-28T23:31:03.163Z,5.63
2022-10-28T23:33:31.070Z,4.60
2022-10-28T23:35:59.308Z,4.72
2022-10-28T23:38:27.027Z,4.18
2022-10-28T23:41:07.787Z,3.78
2022-10-28T23:43:35.412Z,4.30
2022-10-28T23:46:02.703Z,4.43
2022-10-28T23:48:30.041Z,3.92
2022-10-28T23:50:57.637Z,3.47
2022-10-28T23:53:24.919Z,4.85
2022-10-28T23:55:52.309Z,3.87
2022-10-28T23:58:21.500Z,4.47
